Time;durP1;ratioP1;P1;durP2;ratioP2;P2;SDS_P1;SDS_P2;PMS_P1;PMS_P2;Temp;Humidity;BMP_temperature;BMP_pressure;BME280_temperature;BME280_humidity;BME280_pressure;Samples;Min_cycle;Max_cycle;Signal;HPM_P1;HPM_P2
2021/08/31 00:00:58;;;;;;;7.35;2.30;;;;;;;;;;4997468;28;20474;-47
2021/08/31 00:03:24;;;;;;;9.13;2.10;;;;;;;;;;4996108;28;20053;-48
2021/08/31 00:05:49;;;;;;;13.32;2.40;;;;;;;;;;4998145;28;20048;-47
2021/08/31 00:08:15;;;;;;;8.85;2.22;;;;;;;;;;4996704;28;20049;-48
2021/08/31 00:10:40;;;;;;;7.40;2.20;;;;;;;;;;4997474;28;20076;-47
2021/08/31 00:13:06;;;;;;;14.15;2.30;;;;;;;;;;4999344;28;20048;-47
2021/08/31 00:15:32;;;;;;;11.02;2.30;;;;;;;;;;4999002;28;20039;-47
2021/08/31 00:18:00;;;;;;;8.73;2.05;;;;;;;;;;4999062;28;20026;-48
2021/08/31 00:20:28;;;;;;;9.40;2.05;;;;;;;;;;4996591;28;20036;-47
2021/08/31 00:22:53;;;;;;;21.65;3.45;;;;;;;;;;4996049;28;20034;-47
2021/08/31 00:25:19;;;;;;;10.13;2.50;;;;;;;;;;5001774;28;20037;-47
2021/08/31 00:27:45;;;;;;;8.07;2.13;;;;;;;;;;4997019;28;20054;-48
2021/08/31 00:30:11;;;;;;;16.00;2.35;;;;;;;;;;5000984;28;20091;-48
2021/08/31 00:32:37;;;;;;;9.38;2.10;;;;;;;;;;4999296;28;20567;-48
2021/08/31 00:35:03;;;;;;;8.52;2.05;;;;;;;;;;5001027;28;20034;-48
2021/08/31 00:37:28;;;;;;;13.05;2.67;;;;;;;;;;4995635;28;20038;-47
2021/08/31 00:39:54;;;;;;;9.57;1.90;;;;;;;;;;5000268;28;20449;-47
2021/08/31 00:42:19;;;;;;;7.40;1.65;;;;;;;;;;5000238;28;20038;-47
2021/08/31 00:44:45;;;;;;;8.68;1.83;;;;;;;;;;4999773;28;22252;-47
2021/08/31 00:47:10;;;;;;;10.60;1.95;;;;;;;;;;5001829;28;20056;-47
2021/08/31 00:49:36;;;;;;;9.85;2.08;;;;;;;;;;4999348;28;20103;-47
2021/08/31 00:52:03;;;;;;;7.35;1.90;;;;;;;;;;4998520;28;20037;-50
2021/08/31 00:54:29;;;;;;;4.68;1.65;;;;;;;;;;4997616;28;20065;-48
2021/08/31 00:57:03;;;;;;;5.90;1.63;;;;;;;;;;5003162;28;20490;-47
2021/08/31 00:59:29;;;;;;;8.48;2.25;;;;;;;;;;4993278;28;20053;-47
2021/08/31 01:01:58;;;;;;;16.65;1.70;;;;;;;;;;5001044;28;20444;-48
2021/08/31 01:04:25;;;;;;;6.90;1.17;;;;;;;;;;4996061;28;20038;-48
2021/08/31 01:06:52;;;;;;;14.07;1.90;;;;;;;;;;4994282;28;20045;-48
2021/08/31 01:09:18;;;;;;;12.13;1.67;;;;;;;;;;4996464;28;20134;-50
2021/08/31 01:11:46;;;;;;;8.15;2.10;;;;;;;;;;5002474;28;20481;-50
2021/08/31 01:14:12;;;;;;;6.05;1.98;;;;;;;;;;4998470;28;20038;-48
2021/08/31 01:16:38;;;;;;;9.48;2.08;;;;;;;;;;4999242;28;20366;-48
2021/08/31 01:19:04;;;;;;;12.15;2.63;;;;;;;;;;5003792;28;20421;-48
2021/08/31 01:21:30;;;;;;;11.05;2.40;;;;;;;;;;4999654;28;20064;-48
2021/08/31 01:23:56;;;;;;;9.40;2.35;;;;;;;;;;5003380;28;20045;-49
2021/08/31 01:26:21;;;;;;;6.60;1.80;;;;;;;;;;5002807;28;20041;-47
2021/08/31 01:28:47;;;;;;;7.20;1.95;;;;;;;;;;4999297;28;20105;-47
2021/08/31 01:31:13;;;;;;;9.38;1.73;;;;;;;;;;4997746;28;20044;-47
2021/08/31 01:33:38;;;;;;;9.82;2.58;;;;;;;;;;5005291;28;20026;-47
2021/08/31 01:36:22;;;;;;;13.68;1.73;;;;;;;;;;4999515;28;20030;-48
2021/08/31 01:38:50;;;;;;;4.97;1.50;;;;;;;;;;5004564;28;20042;-48
2021/08/31 01:41:16;;;;;;;8.77;1.77;;;;;;;;;;4984053;28;20092;-47
2021/08/31 01:43:43;;;;;;;9.68;2.63;;;;;;;;;;5007372;28;20068;-48
2021/08/31 01:46:08;;;;;;;12.15;1.70;;;;;;;;;;5003875;28;20485;-50
2021/08/31 01:48:34;;;;;;;11.75;1.88;;;;;;;;;;5002709;28;20061;-47
2021/08/31 01:50:59;;;;;;;8.20;1.90;;;;;;;;;;4996289;28;20088;-48
2021/08/31 01:53:25;;;;;;;7.40;1.90;;;;;;;;;;5003871;28;20029;-48
2021/08/31 01:55:50;;;;;;;10.38;1.73;;;;;;;;;;5000347;28;20128;-48
2021/08/31 01:58:18;;;;;;;15.38;2.55;;;;;;;;;;5003937;28;20038;-47
2021/08/31 02:00:43;;;;;;;16.13;2.65;;;;;;;;;;5002332;28;20045;-48
2021/08/31 02:03:09;;;;;;;18.00;1.88;;;;;;;;;;4998633;28;20042;-48
2021/08/31 02:05:34;;;;;;;15.65;2.67;;;;;;;;;;4995253;28;20089;-47
2021/08/31 02:08:00;;;;;;;12.60;1.73;;;;;;;;;;4999620;28;20042;-47
2021/08/31 02:10:25;;;;;;;12.73;2.20;;;;;;;;;;5004307;28;20030;-47
2021/08/31 02:12:51;;;;;;;14.43;2.47;;;;;;;;;;5001791;28;20499;-47
2021/08/31 02:15:17;;;;;;;19.75;1.90;;;;;;;;;;5000402;28;20033;-48
2021/08/31 02:17:42;;;;;;;11.48;1.95;;;;;;;;;;4997561;28;20034;-49
2021/08/31 02:20:09;;;;;;;11.95;2.20;;;;;;;;;;5000239;28;20057;-48
2021/08/31 02:22:35;;;;;;;6.70;2.58;;;;;;;;;;5001265;28;20045;-48
2021/08/31 02:25:02;;;;;;;15.98;1.98;;;;;;;;;;5000786;28;20037;-47
2021/08/31 02:27:27;;;;;;;7.10;1.35;;;;;;;;;;5002988;28;20026;-47
2021/08/31 02:29:53;;;;;;;10.23;2.15;;;;;;;;;;5001755;28;20049;-47
2021/08/31 02:32:18;;;;;;;7.03;2.05;;;;;;;;;;4996357;28;20073;-47
2021/08/31 02:34:44;;;;;;;9.73;1.70;;;;;;;;;;4998638;28;20049;-48
2021/08/31 02:37:09;;;;;;;6.57;1.40;;;;;;;;;;5002860;28;20044;-48
2021/08/31 02:39:35;;;;;;;25.00;3.03;;;;;;;;;;4999483;28;20050;-48
2021/08/31 02:42:00;;;;;;;11.00;1.30;;;;;;;;;;5002672;28;20026;-48
2021/08/31 02:44:26;;;;;;;16.00;2.95;;;;;;;;;;5001466;28;20033;-47
2021/08/31 02:46:52;;;;;;;14.88;1.55;;;;;;;;;;5002276;28;20403;-48
2021/08/31 02:49:17;;;;;;;10.35;2.05;;;;;;;;;;5003900;28;20112;-47
2021/08/31 02:51:43;;;;;;;4.82;1.35;;;;;;;;;;5010272;28;20088;-49
2021/08/31 02:54:08;;;;;;;11.65;1.95;;;;;;;;;;5008303;28;20026;-47
2021/08/31 02:56:34;;;;;;;9.50;1.77;;;;;;;;;;5001193;28;20034;-47
2021/08/31 02:58:59;;;;;;;9.75;1.65;;;;;;;;;;5005363;28;20421;-48
2021/08/31 03:03:58;;;;;;;11.15;1.52;;;;;;;;;;4998111;28;20030;-48
2021/08/31 03:06:25;;;;;;;15.93;1.75;;;;;;;;;;5000281;28;20065;-47
2021/08/31 03:08:50;;;;;;;14.93;1.52;;;;;;;;;;5003016;28;20124;-47
2021/08/31 03:11:16;;;;;;;5.72;1.25;;;;;;;;;;4994879;28;20121;-48
2021/08/31 03:13:41;;;;;;;11.07;1.83;;;;;;;;;;5002342;28;20230;-47
2021/08/31 03:16:07;;;;;;;14.75;1.85;;;;;;;;;;5000814;28;20048;-48
2021/08/31 03:18:32;;;;;;;12.30;1.75;;;;;;;;;;4997913;28;20049;-47
2021/08/31 03:20:58;;;;;;;13.35;2.78;;;;;;;;;;5000268;28;20060;-47
2021/08/31 03:23:24;;;;;;;15.57;1.60;;;;;;;;;;4998528;28;20028;-48
2021/08/31 03:25:49;;;;;;;7.80;2.00;;;;;;;;;;4999606;28;20038;-49
2021/08/31 03:28:15;;;;;;;14.45;1.88;;;;;;;;;;4998257;28;20401;-47
2021/08/31 03:30:40;;;;;;;12.05;1.92;;;;;;;;;;5004387;28;20033;-48
2021/08/31 03:33:06;;;;;;;11.80;1.58;;;;;;;;;;5003657;28;20461;-49
2021/08/31 03:35:32;;;;;;;8.23;2.03;;;;;;;;;;5003747;28;20520;-48
2021/08/31 03:37:57;;;;;;;14.88;3.03;;;;;;;;;;5000973;28;20556;-48
2021/08/31 03:40:23;;;;;;;16.00;2.08;;;;;;;;;;4999918;28;20037;-47
2021/08/31 03:42:48;;;;;;;12.25;2.00;;;;;;;;;;4998070;28;20045;-48
2021/08/31 03:45:15;;;;;;;12.32;1.92;;;;;;;;;;4999065;28;20033;-47
2021/08/31 03:47:41;;;;;;;10.25;1.83;;;;;;;;;;5004865;28;20468;-47
2021/08/31 03:50:08;;;;;;;11.55;1.42;;;;;;;;;;5000727;28;20568;-47
2021/08/31 03:52:33;;;;;;;21.48;2.97;;;;;;;;;;5000729;28;20036;-48
2021/08/31 03:55:00;;;;;;;16.48;1.95;;;;;;;;;;4998269;28;20030;-48
2021/08/31 03:57:25;;;;;;;14.50;2.00;;;;;;;;;;4998250;28;20117;-47
2021/08/31 03:59:51;;;;;;;16.45;2.75;;;;;;;;;;5000226;28;20575;-48
2021/08/31 04:02:17;;;;;;;11.73;1.67;;;;;;;;;;4998772;28;20030;-47
2021/08/31 04:04:42;;;;;;;12.00;1.70;;;;;;;;;;5003397;28;20045;-47
2021/08/31 04:07:08;;;;;;;16.05;2.25;;;;;;;;;;5003194;28;20091;-47
2021/08/31 04:09:33;;;;;;;15.88;2.25;;;;;;;;;;4997586;28;20030;-48
2021/08/31 04:11:59;;;;;;;15.13;2.20;;;;;;;;;;5001063;28;20038;-48
2021/08/31 04:14:24;;;;;;;9.82;2.85;;;;;;;;;;5001844;28;20042;-47
2021/08/31 04:16:50;;;;;;;11.63;1.40;;;;;;;;;;4999797;28;20039;-48
2021/08/31 04:19:15;;;;;;;10.95;1.80;;;;;;;;;;4994418;28;20029;-46
2021/08/31 04:21:41;;;;;;;13.63;1.88;;;;;;;;;;4997467;28;20034;-47
2021/08/31 04:24:07;;;;;;;7.07;1.52;;;;;;;;;;5004098;28;20044;-47
2021/08/31 04:26:33;;;;;;;9.38;1.98;;;;;;;;;;4995724;28;20033;-47
2021/08/31 04:28:58;;;;;;;11.35;1.60;;;;;;;;;;5001124;28;20065;-47
2021/08/31 04:31:24;;;;;;;14.32;2.00;;;;;;;;;;4997363;28;20503;-47
2021/08/31 04:33:51;;;;;;;10.07;1.63;;;;;;;;;;5000950;28;20041;-48
2021/08/31 04:36:17;;;;;;;13.63;2.00;;;;;;;;;;5000348;28;21007;-47
2021/08/31 04:38:42;;;;;;;9.40;1.95;;;;;;;;;;4998471;28;20044;-47
2021/08/31 04:41:08;;;;;;;14.70;1.40;;;;;;;;;;4996624;28;20060;-47
2021/08/31 04:43:33;;;;;;;10.57;1.45;;;;;;;;;;5000815;28;20033;-49
2021/08/31 04:45:59;;;;;;;6.97;1.20;;;;;;;;;;4998631;28;20443;-48
2021/08/31 04:48:25;;;;;;;6.03;1.27;;;;;;;;;;4996174;28;20030;-47
2021/08/31 04:50:50;;;;;;;9.32;1.55;;;;;;;;;;5001894;28;20116;-47
2021/08/31 04:53:16;;;;;;;7.88;1.40;;;;;;;;;;4998347;28;20497;-48
2021/08/31 04:55:42;;;;;;;13.80;1.67;;;;;;;;;;4996436;28;20027;-48
2021/08/31 04:58:09;;;;;;;11.90;1.77;;;;;;;;;;5001769;28;20076;-47
2021/08/31 05:00:34;;;;;;;14.30;2.55;;;;;;;;;;4995882;28;21736;-48
2021/08/31 05:03:00;;;;;;;8.40;1.17;;;;;;;;;;4999660;28;20548;-48
2021/08/31 05:05:25;;;;;;;14.57;1.83;;;;;;;;;;5001598;28;20113;-48
2021/08/31 05:07:51;;;;;;;10.77;1.02;;;;;;;;;;4995287;28;20041;-48
2021/08/31 05:10:17;;;;;;;11.75;1.15;;;;;;;;;;4995722;28;20029;-47
2021/08/31 05:12:42;;;;;;;8.85;1.50;;;;;;;;;;5003284;28;20025;-47
2021/08/31 05:15:08;;;;;;;11.38;1.85;;;;;;;;;;5001332;28;20065;-48
2021/08/31 05:17:35;;;;;;;5.45;1.40;;;;;;;;;;5001769;28;20029;-48
2021/08/31 05:20:02;;;;;;;9.38;1.17;;;;;;;;;;4996131;28;20489;-47
2021/08/31 05:22:28;;;;;;;5.72;0.90;;;;;;;;;;4997467;28;20088;-48
2021/08/31 05:24:54;;;;;;;8.77;1.25;;;;;;;;;;4997093;28;20065;-48
2021/08/31 05:27:22;;;;;;;12.13;1.70;;;;;;;;;;4999286;28;20038;-47
2021/08/31 05:29:47;;;;;;;10.95;1.23;;;;;;;;;;4998450;28;20092;-47
2021/08/31 05:32:13;;;;;;;5.32;0.93;;;;;;;;;;4996179;28;20042;-47
2021/08/31 05:34:38;;;;;;;10.85;1.98;;;;;;;;;;4998938;28;20038;-47
2021/08/31 05:37:04;;;;;;;9.55;1.25;;;;;;;;;;5000134;28;20033;-48
2021/08/31 05:39:33;;;;;;;4.93;1.00;;;;;;;;;;4997073;28;20124;-48
2021/08/31 05:42:04;;;;;;;9.32;1.15;;;;;;;;;;4995553;28;20418;-48
2021/08/31 05:44:34;;;;;;;2.27;0.83;;;;;;;;;;4996231;28;20030;-47
2021/08/31 05:47:00;;;;;;;4.28;0.70;;;;;;;;;;4997421;28;20065;-49
2021/08/31 05:49:26;;;;;;;8.63;0.85;;;;;;;;;;4999551;28;20029;-47
2021/08/31 05:51:53;;;;;;;7.05;0.98;;;;;;;;;;4999491;28;20030;-47
2021/08/31 05:54:20;;;;;;;7.20;0.82;;;;;;;;;;4996498;28;20064;-47
2021/08/31 05:56:47;;;;;;;12.85;1.05;;;;;;;;;;5001943;28;20580;-47
2021/08/31 05:59:13;;;;;;;14.20;1.17;;;;;;;;;;5000294;28;20082;-48
2021/08/31 06:01:39;;;;;;;8.23;1.00;;;;;;;;;;5002885;28;20057;-47
2021/08/31 06:04:04;;;;;;;8.90;1.08;;;;;;;;;;5002355;28;20485;-47
2021/08/31 06:06:30;;;;;;;8.30;1.33;;;;;;;;;;4999052;28;20038;-47
2021/08/31 06:08:55;;;;;;;9.13;0.93;;;;;;;;;;4998733;28;20042;-48
2021/08/31 06:11:22;;;;;;;5.38;0.70;;;;;;;;;;5003894;28;20131;-47
2021/08/31 06:13:47;;;;;;;8.63;1.10;;;;;;;;;;5008743;28;20149;-47
2021/08/31 06:16:13;;;;;;;6.78;1.15;;;;;;;;;;5003918;28;20196;-47
2021/08/31 06:18:39;;;;;;;9.18;1.17;;;;;;;;;;5004002;28;20042;-47
2021/08/31 06:21:04;;;;;;;2.10;0.60;;;;;;;;;;5007663;28;20125;-48
2021/08/31 06:23:30;;;;;;;10.60;0.88;;;;;;;;;;5006279;28;20038;-48
2021/08/31 06:26:02;;;;;;;5.25;0.98;;;;;;;;;;5006030;28;20038;-48
2021/08/31 06:28:27;;;;;;;3.38;0.80;;;;;;;;;;4993641;28;20042;-47
2021/08/31 06:30:53;;;;;;;4.95;0.95;;;;;;;;;;5005854;28;20037;-47
2021/08/31 06:33:18;;;;;;;8.13;1.02;;;;;;;;;;5003781;28;20045;-49
2021/08/31 06:35:44;;;;;;;4.97;0.73;;;;;;;;;;5002983;28;20041;-47
2021/08/31 06:38:09;;;;;;;5.40;1.27;;;;;;;;;;5002681;28;20035;-47
2021/08/31 06:40:35;;;;;;;6.63;0.93;;;;;;;;;;5003641;28;20586;-47
2021/08/31 06:43:01;;;;;;;3.03;0.82;;;;;;;;;;5003516;28;20091;-48
2021/08/31 06:45:26;;;;;;;1.65;0.73;;;;;;;;;;4998867;28;20524;-47
2021/08/31 06:47:52;;;;;;;4.63;0.82;;;;;;;;;;5001396;28;20022;-47
2021/08/31 06:50:17;;;;;;;7.30;1.00;;;;;;;;;;4999167;28;20557;-49
2021/08/31 06:52:45;;;;;;;2.45;0.65;;;;;;;;;;5006914;28;20075;-48
2021/08/31 06:55:11;;;;;;;3.53;0.95;;;;;;;;;;5003748;28;20109;-47
2021/08/31 06:57:37;;;;;;;3.05;0.52;;;;;;;;;;4999108;28;20077;-48
2021/08/31 07:00:07;;;;;;;8.48;0.70;;;;;;;;;;4997730;28;20123;-48
2021/08/31 07:02:33;;;;;;;6.00;1.60;;;;;;;;;;5003176;28;20030;-47
2021/08/31 07:04:59;;;;;;;5.03;0.98;;;;;;;;;;5005306;28;20491;-47
2021/08/31 07:07:24;;;;;;;8.10;0.98;;;;;;;;;;5002417;28;20103;-51
2021/08/31 07:09:50;;;;;;;2.90;0.68;;;;;;;;;;4998905;28;20065;-47
2021/08/31 07:12:16;;;;;;;5.47;1.05;;;;;;;;;;4999969;28;20119;-47
2021/08/31 07:14:41;;;;;;;4.57;0.90;;;;;;;;;;4998549;28;20374;-47
2021/08/31 07:17:07;;;;;;;5.40;0.70;;;;;;;;;;5002599;28;20613;-48
2021/08/31 07:19:32;;;;;;;5.43;0.80;;;;;;;;;;5003332;28;20038;-46
2021/08/31 07:21:58;;;;;;;4.78;0.73;;;;;;;;;;5003320;28;20037;-49
2021/08/31 07:24:23;;;;;;;1.90;0.75;;;;;;;;;;4997096;28;20263;-47
2021/08/31 07:26:49;;;;;;;3.88;0.88;;;;;;;;;;5004281;28;20046;-46
2021/08/31 07:29:15;;;;;;;6.05;0.95;;;;;;;;;;5002989;28;20493;-47
2021/08/31 07:31:41;;;;;;;1.92;0.65;;;;;;;;;;5004704;28;20034;-47
2021/08/31 07:34:07;;;;;;;3.92;0.68;;;;;;;;;;5008318;28;20032;-47
2021/08/31 07:36:32;;;;;;;3.63;0.57;;;;;;;;;;5000011;28;20038;-46
2021/08/31 07:38:58;;;;;;;3.20;0.80;;;;;;;;;;4999867;28;20412;-52
2021/08/31 07:41:24;;;;;;;2.00;0.75;;;;;;;;;;5007250;28;20048;-58
2021/08/31 07:43:51;;;;;;;3.72;0.63;;;;;;;;;;5007203;28;20088;-58
2021/08/31 07:46:16;;;;;;;3.80;1.13;;;;;;;;;;4997411;28;20031;-58
2021/08/31 07:48:42;;;;;;;4.40;1.15;;;;;;;;;;5008008;28;20049;-58
2021/08/31 07:51:08;;;;;;;6.82;1.27;;;;;;;;;;5008049;28;20400;-58
2021/08/31 07:53:33;;;;;;;5.53;1.20;;;;;;;;;;5004410;28;20037;-58
2021/08/31 07:55:59;;;;;;;3.30;1.35;;;;;;;;;;5006877;28;20116;-58
2021/08/31 07:58:24;;;;;;;4.10;1.33;;;;;;;;;;5007389;28;20080;-58
2021/08/31 08:00:50;;;;;;;3.83;1.50;;;;;;;;;;5004476;28;20438;-57
2021/08/31 08:03:15;;;;;;;4.00;1.60;;;;;;;;;;4998785;28;20033;-58
2021/08/31 08:05:41;;;;;;;3.88;1.30;;;;;;;;;;5005526;28;20061;-58
2021/08/31 08:08:06;;;;;;;4.68;1.02;;;;;;;;;;4998775;28;20021;-58
2021/08/31 08:10:32;;;;;;;8.32;1.30;;;;;;;;;;4998949;28;20054;-58
2021/08/31 08:12:58;;;;;;;5.07;1.40;;;;;;;;;;5001930;28;20037;-58
2021/08/31 08:15:23;;;;;;;5.03;1.27;;;;;;;;;;5001936;28;20030;-58
2021/08/31 08:17:50;;;;;;;8.65;2.45;;;;;;;;;;4995807;28;20520;-57
2021/08/31 08:20:16;;;;;;;6.13;1.55;;;;;;;;;;5001286;28;20021;-58
2021/08/31 08:22:42;;;;;;;6.20;1.40;;;;;;;;;;4996414;28;20486;-58
2021/08/31 08:25:08;;;;;;;4.88;1.55;;;;;;;;;;4995043;28;20042;-58
2021/08/31 08:27:34;;;;;;;7.57;1.55;;;;;;;;;;4998075;28;20037;-57
2021/08/31 08:29:59;;;;;;;5.22;1.30;;;;;;;;;;4999742;28;20042;-58
2021/08/31 08:32:26;;;;;;;5.93;1.33;;;;;;;;;;4999786;28;20026;-58
2021/08/31 08:34:51;;;;;;;2.78;1.20;;;;;;;;;;5003304;28;20077;-58
2021/08/31 08:37:17;;;;;;;3.38;1.45;;;;;;;;;;5003680;28;20022;-58
2021/08/31 08:39:42;;;;;;;4.28;1.58;;;;;;;;;;5002435;28;20057;-58
2021/08/31 08:42:10;;;;;;;4.35;1.23;;;;;;;;;;5004351;28;20393;-58
2021/08/31 08:44:37;;;;;;;5.93;1.60;;;;;;;;;;5001810;28;20022;-58
2021/08/31 08:47:02;;;;;;;8.52;1.83;;;;;;;;;;4997847;28;20041;-58
2021/08/31 08:49:29;;;;;;;9.93;2.00;;;;;;;;;;5000404;28;20030;-58
2021/08/31 08:51:57;;;;;;;5.93;2.03;;;;;;;;;;5006336;28;20456;-58
2021/08/31 08:54:23;;;;;;;7.78;3.17;;;;;;;;;;4999170;28;20485;-58
2021/08/31 08:56:51;;;;;;;8.80;2.40;;;;;;;;;;5003398;28;20725;-58
2021/08/31 08:59:17;;;;;;;7.57;2.60;;;;;;;;;;5000859;28;20373;-58
2021/08/31 09:01:43;;;;;;;6.90;2.70;;;;;;;;;;5002399;28;20104;-57
2021/08/31 09:04:09;;;;;;;12.82;3.13;;;;;;;;;;5001535;28;20497;-57
2021/08/31 09:06:35;;;;;;;7.10;2.65;;;;;;;;;;5001082;28;20524;-57
2021/08/31 09:09:04;;;;;;;8.20;2.38;;;;;;;;;;5001419;28;20037;-58
2021/08/31 09:11:31;;;;;;;15.50;3.05;;;;;;;;;;5002036;28;20091;-58
2021/08/31 09:14:22;;;;;;;8.80;2.67;;;;;;;;;;5005037;28;20026;-58
2021/08/31 09:16:56;;;;;;;6.82;2.53;;;;;;;;;;4999890;28;20022;-57
2021/08/31 09:19:29;;;;;;;8.75;2.40;;;;;;;;;;4999784;28;20084;-58
2021/08/31 09:22:13;;;;;;;8.23;2.35;;;;;;;;;;5001227;28;20034;-57
2021/08/31 09:24:40;;;;;;;6.35;2.40;;;;;;;;;;4998233;28;20092;-58
2021/08/31 09:27:06;;;;;;;8.95;2.40;;;;;;;;;;4997746;28;20080;-58
2021/08/31 09:29:41;;;;;;;5.65;2.50;;;;;;;;;;5003262;28;20296;-59
2021/08/31 09:32:11;;;;;;;6.68;2.70;;;;;;;;;;5005193;28;20120;-57
2021/08/31 09:34:44;;;;;;;12.98;3.20;;;;;;;;;;5001344;28;20026;-59
2021/08/31 09:37:25;;;;;;;9.48;2.40;;;;;;;;;;5006813;28;20580;-57
2021/08/31 09:40:10;;;;;;;5.32;2.40;;;;;;;;;;5009995;28;20436;-56
2021/08/31 09:42:54;;;;;;;18.02;2.70;;;;;;;;;;5008277;28;20096;-59
2021/08/31 09:45:32;;;;;;;14.45;3.33;;;;;;;;;;5006082;28;20124;-59
2021/08/31 09:47:59;;;;;;;12.00;3.03;;;;;;;;;;5007758;28;20025;-58
2021/08/31 09:50:29;;;;;;;8.18;2.90;;;;;;;;;;5009830;28;20028;-58
2021/08/31 09:53:10;;;;;;;11.25;3.05;;;;;;;;;;5010252;28;20022;-59
2021/08/31 09:55:37;;;;;;;12.48;3.20;;;;;;;;;;5004794;28;20230;-59
2021/08/31 09:58:25;;;;;;;11.57;2.33;;;;;;;;;;5008536;28;20179;-59
2021/08/31 10:00:53;;;;;;;8.25;2.88;;;;;;;;;;5009900;28;20421;-58
2021/08/31 10:03:20;;;;;;;11.80;3.15;;;;;;;;;;5003903;28;20038;-59
2021/08/31 10:05:50;;;;;;;7.93;2.47;;;;;;;;;;5009444;28;20037;-59
2021/08/31 10:08:17;;;;;;;7.72;2.38;;;;;;;;;;5001857;28;20026;-58
2021/08/31 10:10:46;;;;;;;17.42;3.28;;;;;;;;;;5009500;28;20145;-58
2021/08/31 10:13:17;;;;;;;11.68;2.80;;;;;;;;;;4996154;28;20106;-58
2021/08/31 10:15:49;;;;;;;10.52;2.55;;;;;;;;;;5007065;28;20025;-59
2021/08/31 10:18:17;;;;;;;10.20;3.65;;;;;;;;;;5009604;28;20036;-58
2021/08/31 10:20:48;;;;;;;8.90;2.47;;;;;;;;;;5009536;28;20501;-58
2021/08/31 10:23:17;;;;;;;12.52;3.13;;;;;;;;;;5008386;28;20120;-57
2021/08/31 10:25:43;;;;;;;12.73;2.47;;;;;;;;;;5008924;28;20033;-58
2021/08/31 10:28:27;;;;;;;10.40;2.90;;;;;;;;;;5009429;28;20176;-58
2021/08/31 10:30:55;;;;;;;7.25;2.65;;;;;;;;;;5008139;28;20459;-58
2021/08/31 10:33:37;;;;;;;18.65;2.95;;;;;;;;;;5009360;28;20429;-57
2021/08/31 10:36:06;;;;;;;13.70;2.80;;;;;;;;;;5003376;28;20314;-58
2021/08/31 10:38:39;;;;;;;8.55;2.30;;;;;;;;;;5008406;28;20061;-58
2021/08/31 10:41:31;;;;;;;7.13;2.40;;;;;;;;;;5009172;28;20041;-58
2021/08/31 10:43:57;;;;;;;;;;;;;;;;;;5009067;28;20044;-58
2021/08/31 10:46:23;;;;;;;5.35;2.28;;;;;;;;;;5008798;28;20363;-58
2021/08/31 10:49:15;;;;;;;10.85;2.85;;;;;;;;;;5008983;28;20026;-57
2021/08/31 10:52:02;;;;;;;9.02;2.33;;;;;;;;;;5008592;28;20339;-58
2021/08/31 10:54:47;;;;;;;8.43;2.08;;;;;;;;;;5004378;28;20037;-58
2021/08/31 10:57:37;;;;;;;9.48;2.53;;;;;;;;;;5008344;28;20022;-58
2021/08/31 11:00:04;;;;;;;7.32;2.10;;;;;;;;;;5006452;28;20033;-58
2021/08/31 11:05:25;;;;;;;6.13;2.03;;;;;;;;;;5008318;28;20145;-58
2021/08/31 11:08:00;;;;;;;16.70;2.97;;;;;;;;;;5008846;28;20024;-58
2021/08/31 11:10:31;;;;;;;7.47;2.10;;;;;;;;;;5008502;28;20084;-59
2021/08/31 11:13:06;;;;;;;12.00;2.50;;;;;;;;;;5004798;28;20496;-58
2021/08/31 11:15:32;;;;;;;9.02;1.67;;;;;;;;;;5002844;28;20032;-59
2021/08/31 11:17:57;;;;;;;15.63;2.00;;;;;;;;;;5006964;28;20022;-58
2021/08/31 11:20:26;;;;;;;12.10;2.00;;;;;;;;;;5002433;28;20142;-58
2021/08/31 11:23:18;;;;;;;4.90;1.75;;;;;;;;;;5004291;28;20464;-58
2021/08/31 11:25:47;;;;;;;29.60;5.03;;;;;;;;;;5005762;28;20041;-58
2021/08/31 11:28:27;;;;;;;6.53;2.00;;;;;;;;;;5007384;28;20018;-58
2021/08/31 11:30:54;;;;;;;7.10;1.90;;;;;;;;;;5007359;28;20029;-58
2021/08/31 11:33:24;;;;;;;8.50;2.47;;;;;;;;;;5005131;28;20061;-58
2021/08/31 11:36:05;;;;;;;6.05;1.98;;;;;;;;;;4999302;28;20034;-58
2021/08/31 11:38:48;;;;;;;8.80;2.10;;;;;;;;;;5000878;28;20018;-58
2021/08/31 11:41:35;;;;;;;6.35;2.22;;;;;;;;;;5001053;28;20049;-58
2021/08/31 11:44:05;;;;;;;7.68;1.70;;;;;;;;;;5001381;28;20030;-58
2021/08/31 11:46:35;;;;;;;6.68;1.80;;;;;;;;;;5005849;28;20378;-58
2021/08/31 11:49:07;;;;;;;8.40;2.45;;;;;;;;;;5002012;28;20022;-58
2021/08/31 11:51:33;;;;;;;8.27;2.03;;;;;;;;;;5003142;28;20107;-58
2021/08/31 11:54:06;;;;;;;4.80;1.95;;;;;;;;;;4998968;28;20041;-58
2021/08/31 11:56:33;;;;;;;5.72;1.70;;;;;;;;;;5006133;28;20072;-58
2021/08/31 11:58:58;;;;;;;7.43;1.98;;;;;;;;;;4994043;28;20026;-58
2021/08/31 12:01:33;;;;;;;4.15;1.67;;;;;;;;;;5000578;28;20398;-57
2021/08/31 12:04:20;;;;;;;6.75;2.08;;;;;;;;;;5002397;28;20030;-58
2021/08/31 12:06:50;;;;;;;10.85;2.35;;;;;;;;;;4998984;28;20036;-58
2021/08/31 12:09:22;;;;;;;5.57;1.75;;;;;;;;;;5003984;28;20029;-58
2021/08/31 12:11:49;;;;;;;9.80;2.53;;;;;;;;;;5003499;28;20025;-58
2021/08/31 12:14:18;;;;;;;6.53;2.40;;;;;;;;;;5003434;28;20060;-58
2021/08/31 12:16:45;;;;;;;7.38;2.10;;;;;;;;;;4996726;28;20026;-58
2021/08/31 12:19:18;;;;;;;8.25;2.08;;;;;;;;;;5001568;28;20039;-58
2021/08/31 12:22:02;;;;;;;8.00;1.90;;;;;;;;;;4996402;28;20505;-58
2021/08/31 12:24:28;;;;;;;5.63;1.85;;;;;;;;;;4995002;28;20104;-58
2021/08/31 12:27:06;;;;;;;5.80;1.92;;;;;;;;;;4993448;28;20049;-58
2021/08/31 12:29:46;;;;;;;5.88;2.08;;;;;;;;;;5001326;28;20489;-58
2021/08/31 12:32:12;;;;;;;7.10;1.95;;;;;;;;;;4998972;28;20125;-58
2021/08/31 12:34:38;;;;;;;7.03;2.05;;;;;;;;;;4998827;28;20084;-58
2021/08/31 12:37:24;;;;;;;6.80;2.17;;;;;;;;;;4995635;28;20034;-57
2021/08/31 12:40:09;;;;;;;10.63;2.28;;;;;;;;;;5006377;28;20050;-58
2021/08/31 12:42:35;;;;;;;5.43;1.73;;;;;;;;;;5003547;28;20104;-58
2021/08/31 12:45:00;;;;;;;6.13;2.17;;;;;;;;;;5002203;28;20153;-57
2021/08/31 12:47:26;;;;;;;4.32;1.73;;;;;;;;;;5004037;28;20049;-57
2021/08/31 12:49:51;;;;;;;5.18;1.55;;;;;;;;;;5000645;28;20120;-58
2021/08/31 12:52:18;;;;;;;5.82;1.90;;;;;;;;;;4999707;28;20038;-58
2021/08/31 12:54:43;;;;;;;8.27;2.10;;;;;;;;;;5002944;28;20038;-57
2021/08/31 12:57:10;;;;;;;6.50;2.05;;;;;;;;;;4997916;28;20034;-58
2021/08/31 12:59:45;;;;;;;5.78;2.10;;;;;;;;;;4991786;28;20049;-58
2021/08/31 13:02:14;;;;;;;6.70;2.20;;;;;;;;;;5001218;28;20026;-58
2021/08/31 13:04:41;;;;;;;5.05;1.60;;;;;;;;;;5002481;28;20038;-57
2021/08/31 13:07:11;;;;;;;6.00;1.92;;;;;;;;;;5000038;28;20037;-58
2021/08/31 13:09:43;;;;;;;4.65;1.52;;;;;;;;;;5006709;28;20072;-57
2021/08/31 13:12:11;;;;;;;8.70;2.30;;;;;;;;;;5001483;28;20045;-57
2021/08/31 13:14:37;;;;;;;7.18;2.05;;;;;;;;;;5002277;28;20319;-58
2021/08/31 13:17:03;;;;;;;6.57;1.83;;;;;;;;;;5010312;28;20030;-58
2021/08/31 13:19:29;;;;;;;3.45;1.90;;;;;;;;;;5010295;28;20477;-58
2021/08/31 13:21:56;;;;;;;14.20;2.20;;;;;;;;;;5008407;28;20072;-58
2021/08/31 13:24:22;;;;;;;8.05;1.77;;;;;;;;;;5010042;28;20037;-58
2021/08/31 13:26:50;;;;;;;5.68;2.13;;;;;;;;;;5010536;28;20030;-58
2021/08/31 13:29:16;;;;;;;3.85;1.83;;;;;;;;;;5009630;28;20036;-58
2021/08/31 13:31:43;;;;;;;11.23;2.30;;;;;;;;;;5011003;28;20030;-58
2021/08/31 13:34:09;;;;;;;9.95;2.17;;;;;;;;;;5010254;28;20100;-57
2021/08/31 13:36:36;;;;;;;9.55;2.38;;;;;;;;;;5010488;28;20033;-58
2021/08/31 13:39:04;;;;;;;8.32;2.20;;;;;;;;;;5010072;28;20050;-58
2021/08/31 13:41:33;;;;;;;9.25;2.47;;;;;;;;;;5010853;28;20160;-57
2021/08/31 13:43:58;;;;;;;7.20;2.22;;;;;;;;;;5006444;28;20033;-58
2021/08/31 13:46:24;;;;;;;6.82;1.88;;;;;;;;;;5010222;28;20454;-58
2021/08/31 13:48:50;;;;;;;7.03;1.92;;;;;;;;;;5008305;28;20685;-57
2021/08/31 13:51:16;;;;;;;4.93;2.00;;;;;;;;;;5006936;28;20440;-58
2021/08/31 13:53:42;;;;;;;11.55;1.95;;;;;;;;;;5009094;28;20021;-58
2021/08/31 13:56:08;;;;;;;5.45;2.22;;;;;;;;;;5008749;28;20037;-57
2021/08/31 13:58:33;;;;;;;4.78;1.70;;;;;;;;;;5010076;28;20559;-57
2021/08/31 14:00:59;;;;;;;5.88;1.67;;;;;;;;;;5002891;28;20053;-57
2021/08/31 14:03:25;;;;;;;8.57;2.22;;;;;;;;;;5006108;28;20046;-57
2021/08/31 14:05:50;;;;;;;5.93;2.13;;;;;;;;;;5009834;28;20057;-57
2021/08/31 14:08:16;;;;;;;5.57;1.85;;;;;;;;;;5003284;28;20037;-57
2021/08/31 14:10:42;;;;;;;9.48;2.30;;;;;;;;;;4997802;28;20030;-57
2021/08/31 14:13:07;;;;;;;5.50;2.03;;;;;;;;;;4999389;28;20542;-57
2021/08/31 14:15:35;;;;;;;8.48;2.20;;;;;;;;;;5001818;28;20034;-57
2021/08/31 14:18:00;;;;;;;11.02;1.92;;;;;;;;;;4999881;28;20493;-58
2021/08/31 14:20:26;;;;;;;4.80;1.80;;;;;;;;;;5000393;28;20085;-57
2021/08/31 14:22:52;;;;;;;10.23;2.05;;;;;;;;;;5006192;28;20115;-58
2021/08/31 14:25:17;;;;;;;8.27;2.78;;;;;;;;;;4997544;28;20030;-58
2021/08/31 14:27:44;;;;;;;10.05;2.08;;;;;;;;;;5006463;28;20029;-58
2021/08/31 14:30:11;;;;;;;6.13;1.75;;;;;;;;;;5005970;28;20044;-58
2021/08/31 14:32:37;;;;;;;4.63;2.05;;;;;;;;;;4999516;28;20504;-57
2021/08/31 14:35:04;;;;;;;6.18;2.10;;;;;;;;;;5006327;28;20104;-57
2021/08/31 14:37:29;;;;;;;3.40;1.80;;;;;;;;;;5007126;28;20629;-58
2021/08/31 14:39:55;;;;;;;7.38;1.50;;;;;;;;;;5009333;28;20065;-57
2021/08/31 14:42:21;;;;;;;7.10;2.08;;;;;;;;;;4999487;28;20034;-58
2021/08/31 14:44:47;;;;;;;8.65;1.90;;;;;;;;;;5007865;28;20034;-58
2021/08/31 14:47:12;;;;;;;4.22;1.67;;;;;;;;;;4999999;28;20142;-58